Hovedside
METAR-TAF:

METAR-TAF

Lufthavner :

Khartoum, Sudan

breddegrad: 15-36N, lengdegrad: 032-33E, høyde over havet: 382 m

Gjeldene værobservasjon

Denne rapporten ble laget for 22 minutter siden, klokken 15:30 UTC
Vind 8 kt fra Nord-nordvest
Temperatur 32°C
Luftfuktighet 15%
Trykk 1010 hPa
Sikt 10 km eller mer
ingen skyer under 1500 m og ingen bygeskyer

METAR: HSSS 201530Z 33008KT CAVOK 32/02 Q1010 NOSIG

Tid: 17:52 (15:52 UTC)

Varsel

Denne rapporten ble laget for 4 timer og 52 minutter siden, klokken 11:00 UTC
Varsel gyldig fra 20. klokken 12 UTC til 21. klokken 18 UTC
Vind 8 kt fra Nord med vindkast opp mot 18 kt
Sikt 10 km eller mer
ingen skyer under 1500 m og ingen bygeskyer

TAF: HSSS 201100Z 2012/2118 36008G18KT CAVOK

Værobservasjoner og værvarsel for over 4000 flyplasser (METAR- og TAF-rapporter).

Tilgjengelige stasjoner er representert av de røde og gule prikkene på kartet.

Hold musepekeren over prikken for å se navnet på stasjonen.

Klikk så for å se værobservasjoner og -varsler.

For å forandre kartet kan du klikke på den grønne knappen med svart kryss for å zoome inn, på den grønne knappen med strek for å zoome ut, eller på de grønne pilene for å se tilstøtende kart.


METAR-TAF: